sensor_id;sensor_type;location;lat;lon;timestamp;P1;durP1;ratioP1;P2;durP2;ratioP2
54263;SDS011;40178;53.042;6.406;2023-05-16T00:01:40;14.32;;;3.28;;
54263;SDS011;40178;53.042;6.406;2023-05-16T00:04:05;11.13;;;2.20;;
54263;SDS011;40178;53.042;6.406;2023-05-16T00:06:31;8.10;;;2.05;;
54263;SDS011;40178;53.042;6.406;2023-05-16T00:08:57;14.48;;;2.20;;
54263;SDS011;40178;53.042;6.406;2023-05-16T00:11:23;8.98;;;3.03;;
54263;SDS011;40178;53.042;6.406;2023-05-16T00:13:49;14.85;;;3.35;;
54263;SDS011;40178;53.042;6.406;2023-05-16T00:16:15;9.25;;;2.00;;
54263;SDS011;40178;53.042;6.406;2023-05-16T00:18:41;13.57;;;2.42;;
54263;SDS011;40178;53.042;6.406;2023-05-16T00:21:09;8.20;;;2.60;;
54263;SDS011;40178;53.042;6.406;2023-05-16T00:23:35;11.68;;;1.80;;
54263;SDS011;40178;53.042;6.406;2023-05-16T00:26:01;11.88;;;2.58;;
54263;SDS011;40178;53.042;6.406;2023-05-16T00:28:27;8.45;;;2.17;;
54263;SDS011;40178;53.042;6.406;2023-05-16T00:30:53;12.38;;;2.22;;
54263;SDS011;40178;53.042;6.406;2023-05-16T00:33:18;9.02;;;1.55;;
54263;SDS011;40178;53.042;6.406;2023-05-16T00:35:44;10.10;;;2.22;;
54263;SDS011;40178;53.042;6.406;2023-05-16T00:38:10;11.60;;;2.13;;
54263;SDS011;40178;53.042;6.406;2023-05-16T00:40:35;11.48;;;1.95;;
54263;SDS011;40178;53.042;6.406;2023-05-16T00:43:01;7.78;;;2.28;;
54263;SDS011;40178;53.042;6.406;2023-05-16T00:45:27;8.35;;;1.63;;
54263;SDS011;40178;53.042;6.406;2023-05-16T00:47:52;8.50;;;2.67;;
54263;SDS011;40178;53.042;6.406;2023-05-16T00:50:18;11.38;;;2.08;;
54263;SDS011;40178;53.042;6.406;2023-05-16T00:52:44;8.07;;;2.20;;
54263;SDS011;40178;53.042;6.406;2023-05-16T00:55:10;8.50;;;1.70;;
54263;SDS011;40178;53.042;6.406;2023-05-16T00:57:36;6.65;;;1.60;;
54263;SDS011;40178;53.042;6.406;2023-05-16T01:00:05;10.65;;;2.28;;
54263;SDS011;40178;53.042;6.406;2023-05-16T01:02:34;9.23;;;2.03;;
54263;SDS011;40178;53.042;6.406;2023-05-16T01:05:01;6.30;;;1.90;;
54263;SDS011;40178;53.042;6.406;2023-05-16T01:07:29;8.10;;;1.92;;
54263;SDS011;40178;53.042;6.406;2023-05-16T01:09:55;10.90;;;2.45;;
54263;SDS011;40178;53.042;6.406;2023-05-16T01:12:28;7.68;;;1.70;;
54263;SDS011;40178;53.042;6.406;2023-05-16T01:15:29;7.68;;;1.80;;
54263;SDS011;40178;53.042;6.406;2023-05-16T01:18:15;9.70;;;2.85;;
54263;SDS011;40178;53.042;6.406;2023-05-16T01:21:00;8.27;;;2.03;;
54263;SDS011;40178;53.042;6.406;2023-05-16T01:28:33;11.38;;;1.80;;
54263;SDS011;40178;53.042;6.406;2023-05-16T01:30:59;9.00;;;2.00;;
54263;SDS011;40178;53.042;6.406;2023-05-16T01:33:25;8.40;;;1.70;;
54263;SDS011;40178;53.042;6.406;2023-05-16T01:38:29;7.43;;;1.70;;
54263;SDS011;40178;53.042;6.406;2023-05-16T01:41:20;10.55;;;2.20;;
54263;SDS011;40178;53.042;6.406;2023-05-16T01:43:53;9.27;;;1.83;;
54263;SDS011;40178;53.042;6.406;2023-05-16T01:46:28;6.60;;;1.73;;
54263;SDS011;40178;53.042;6.406;2023-05-16T01:49:04;8.95;;;2.22;;
54263;SDS011;40178;53.042;6.406;2023-05-16T01:54:17;6.50;;;1.52;;
54263;SDS011;40178;53.042;6.406;2023-05-16T01:56:46;9.20;;;2.28;;
54263;SDS011;40178;53.042;6.406;2023-05-16T01:59:18;11.32;;;2.08;;
54263;SDS011;40178;53.042;6.406;2023-05-16T02:01:46;9.82;;;1.70;;
54263;SDS011;40178;53.042;6.406;2023-05-16T02:04:11;11.55;;;2.03;;
54263;SDS011;40178;53.042;6.406;2023-05-16T02:06:39;9.98;;;2.22;;
54263;SDS011;40178;53.042;6.406;2023-05-16T02:09:05;5.63;;;1.50;;
54263;SDS011;40178;53.042;6.406;2023-05-16T02:11:31;6.95;;;1.80;;
54263;SDS011;40178;53.042;6.406;2023-05-16T02:13:56;10.57;;;2.00;;
54263;SDS011;40178;53.042;6.406;2023-05-16T02:16:22;9.63;;;1.70;;
54263;SDS011;40178;53.042;6.406;2023-05-16T02:18:48;7.72;;;1.52;;
54263;SDS011;40178;53.042;6.406;2023-05-16T02:21:13;7.43;;;1.65;;
54263;SDS011;40178;53.042;6.406;2023-05-16T02:23:39;9.20;;;2.00;;
54263;SDS011;40178;53.042;6.406;2023-05-16T02:26:05;10.85;;;1.88;;
54263;SDS011;40178;53.042;6.406;2023-05-16T02:28:31;8.65;;;1.67;;
54263;SDS011;40178;53.042;6.406;2023-05-16T02:30:59;8.95;;;1.73;;
54263;SDS011;40178;53.042;6.406;2023-05-16T02:33:26;12.73;;;1.95;;
54263;SDS011;40178;53.042;6.406;2023-05-16T02:35:53;9.27;;;2.42;;
54263;SDS011;40178;53.042;6.406;2023-05-16T02:38:19;8.75;;;2.88;;
54263;SDS011;40178;53.042;6.406;2023-05-16T02:40:48;9.45;;;1.63;;
54263;SDS011;40178;53.042;6.406;2023-05-16T02:43:14;7.25;;;1.77;;
54263;SDS011;40178;53.042;6.406;2023-05-16T02:45:40;9.27;;;2.10;;
54263;SDS011;40178;53.042;6.406;2023-05-16T02:48:06;11.80;;;1.98;;
54263;SDS011;40178;53.042;6.406;2023-05-16T02:50:32;8.65;;;1.42;;
54263;SDS011;40178;53.042;6.406;2023-05-16T02:52:58;13.73;;;1.67;;
54263;SDS011;40178;53.042;6.406;2023-05-16T02:55:26;11.45;;;1.88;;
54263;SDS011;40178;53.042;6.406;2023-05-16T02:57:52;6.97;;;1.80;;
54263;SDS011;40178;53.042;6.406;2023-05-16T03:00:18;7.85;;;1.77;;
54263;SDS011;40178;53.042;6.406;2023-05-16T03:02:44;6.88;;;1.77;;
54263;SDS011;40178;53.042;6.406;2023-05-16T03:05:10;11.48;;;2.28;;
54263;SDS011;40178;53.042;6.406;2023-05-16T03:07:36;9.52;;;1.98;;
54263;SDS011;40178;53.042;6.406;2023-05-16T03:10:03;6.25;;;1.73;;
54263;SDS011;40178;53.042;6.406;2023-05-16T03:12:29;7.65;;;1.80;;
54263;SDS011;40178;53.042;6.406;2023-05-16T03:14:54;8.70;;;2.15;;
54263;SDS011;40178;53.042;6.406;2023-05-16T03:17:20;9.55;;;2.20;;
54263;SDS011;40178;53.042;6.406;2023-05-16T03:19:45;10.13;;;2.47;;
54263;SDS011;40178;53.042;6.406;2023-05-16T03:22:11;10.32;;;1.92;;
54263;SDS011;40178;53.042;6.406;2023-05-16T03:24:37;10.60;;;1.83;;
54263;SDS011;40178;53.042;6.406;2023-05-16T03:27:03;7.50;;;2.13;;
54263;SDS011;40178;53.042;6.406;2023-05-16T03:29:29;8.57;;;1.80;;
54263;SDS011;40178;53.042;6.406;2023-05-16T03:31:55;11.02;;;2.83;;
54263;SDS011;40178;53.042;6.406;2023-05-16T03:34:21;9.43;;;2.35;;
54263;SDS011;40178;53.042;6.406;2023-05-16T03:36:49;9.13;;;2.05;;
54263;SDS011;40178;53.042;6.406;2023-05-16T03:39:15;7.82;;;2.10;;
54263;SDS011;40178;53.042;6.406;2023-05-16T03:41:41;14.70;;;1.92;;
54263;SDS011;40178;53.042;6.406;2023-05-16T03:44:07;8.90;;;1.90;;
54263;SDS011;40178;53.042;6.406;2023-05-16T03:46:33;7.75;;;2.55;;
54263;SDS011;40178;53.042;6.406;2023-05-16T03:48:59;10.98;;;3.15;;
54263;SDS011;40178;53.042;6.406;2023-05-16T03:51:25;9.93;;;1.83;;
54263;SDS011;40178;53.042;6.406;2023-05-16T03:53:51;9.82;;;2.00;;
54263;SDS011;40178;53.042;6.406;2023-05-16T03:56:17;10.73;;;2.40;;
54263;SDS011;40178;53.042;6.406;2023-05-16T03:58:43;7.35;;;1.90;;
54263;SDS011;40178;53.042;6.406;2023-05-16T04:01:09;10.43;;;2.20;;
54263;SDS011;40178;53.042;6.406;2023-05-16T04:03:34;6.72;;;1.98;;
54263;SDS011;40178;53.042;6.406;2023-05-16T04:06:02;9.52;;;2.35;;
54263;SDS011;40178;53.042;6.406;2023-05-16T04:08:28;8.63;;;2.20;;
54263;SDS011;40178;53.042;6.406;2023-05-16T04:10:54;7.88;;;1.98;;
54263;SDS011;40178;53.042;6.406;2023-05-16T04:13:19;13.73;;;2.75;;
54263;SDS011;40178;53.042;6.406;2023-05-16T04:15:45;8.38;;;2.28;;
54263;SDS011;40178;53.042;6.406;2023-05-16T04:18:11;11.63;;;2.10;;
54263;SDS011;40178;53.042;6.406;2023-05-16T04:20:37;8.48;;;2.05;;
54263;SDS011;40178;53.042;6.406;2023-05-16T04:23:03;8.55;;;2.22;;
54263;SDS011;40178;53.042;6.406;2023-05-16T04:25:28;11.20;;;1.80;;
54263;SDS011;40178;53.042;6.406;2023-05-16T04:27:55;11.23;;;2.35;;
54263;SDS011;40178;53.042;6.406;2023-05-16T04:30:21;8.68;;;1.90;;
54263;SDS011;40178;53.042;6.406;2023-05-16T04:32:46;15.85;;;4.07;;
54263;SDS011;40178;53.042;6.406;2023-05-16T04:35:12;6.85;;;2.75;;
54263;SDS011;40178;53.042;6.406;2023-05-16T04:37:38;10.82;;;2.55;;
54263;SDS011;40178;53.042;6.406;2023-05-16T04:40:04;8.18;;;2.20;;
54263;SDS011;40178;53.042;6.406;2023-05-16T04:42:31;6.88;;;1.77;;
54263;SDS011;40178;53.042;6.406;2023-05-16T04:44:57;10.48;;;1.90;;
54263;SDS011;40178;53.042;6.406;2023-05-16T04:47:23;7.75;;;2.20;;
54263;SDS011;40178;53.042;6.406;2023-05-16T04:49:48;8.50;;;2.05;;
54263;SDS011;40178;53.042;6.406;2023-05-16T04:52:14;8.88;;;1.77;;
54263;SDS011;40178;53.042;6.406;2023-05-16T04:54:40;8.40;;;2.42;;
54263;SDS011;40178;53.042;6.406;2023-05-16T04:57:05;7.25;;;2.63;;
54263;SDS011;40178;53.042;6.406;2023-05-16T04:59:31;10.85;;;2.13;;
54263;SDS011;40178;53.042;6.406;2023-05-16T05:01:57;6.85;;;1.83;;
54263;SDS011;40178;53.042;6.406;2023-05-16T05:04:23;8.18;;;2.00;;
54263;SDS011;40178;53.042;6.406;2023-05-16T05:06:49;5.72;;;1.60;;
54263;SDS011;40178;53.042;6.406;2023-05-16T05:09:14;8.70;;;1.80;;
54263;SDS011;40178;53.042;6.406;2023-05-16T05:11:40;7.82;;;2.08;;
54263;SDS011;40178;53.042;6.406;2023-05-16T05:14:05;8.57;;;2.20;;
54263;SDS011;40178;53.042;6.406;2023-05-16T05:16:31;9.25;;;1.98;;
54263;SDS011;40178;53.042;6.406;2023-05-16T05:18:57;6.68;;;2.17;;
54263;SDS011;40178;53.042;6.406;2023-05-16T05:21:22;8.85;;;2.38;;
54263;SDS011;40178;53.042;6.406;2023-05-16T05:23:49;9.07;;;1.92;;
54263;SDS011;40178;53.042;6.406;2023-05-16T05:26:15;7.68;;;1.98;;
54263;SDS011;40178;53.042;6.406;2023-05-16T05:28:41;8.05;;;2.25;;
54263;SDS011;40178;53.042;6.406;2023-05-16T05:31:07;7.43;;;2.17;;
54263;SDS011;40178;53.042;6.406;2023-05-16T05:33:33;7.18;;;2.00;;
54263;SDS011;40178;53.042;6.406;2023-05-16T05:35:59;9.27;;;2.38;;
54263;SDS011;40178;53.042;6.406;2023-05-16T05:38:24;8.65;;;1.75;;
54263;SDS011;40178;53.042;6.406;2023-05-16T05:40:50;7.07;;;1.67;;
54263;SDS011;40178;53.042;6.406;2023-05-16T05:43:15;7.28;;;1.92;;
54263;SDS011;40178;53.042;6.406;2023-05-16T05:45:42;5.65;;;1.80;;
54263;SDS011;40178;53.042;6.406;2023-05-16T05:48:08;9.80;;;1.60;;
54263;SDS011;40178;53.042;6.406;2023-05-16T05:50:34;9.00;;;2.72;;
54263;SDS011;40178;53.042;6.406;2023-05-16T05:53:00;6.75;;;1.65;;
54263;SDS011;40178;53.042;6.406;2023-05-16T05:55:26;8.70;;;1.60;;
54263;SDS011;40178;53.042;6.406;2023-05-16T05:57:52;7.47;;;2.42;;
54263;SDS011;40178;53.042;6.406;2023-05-16T06:00:18;7.35;;;1.55;;
54263;SDS011;40178;53.042;6.406;2023-05-16T06:02:43;5.80;;;1.40;;
54263;SDS011;40178;53.042;6.406;2023-05-16T06:05:09;7.80;;;1.92;;
54263;SDS011;40178;53.042;6.406;2023-05-16T06:07:35;6.85;;;1.50;;
54263;SDS011;40178;53.042;6.406;2023-05-16T06:10:00;7.93;;;1.40;;
54263;SDS011;40178;53.042;6.406;2023-05-16T06:12:28;5.32;;;1.10;;
54263;SDS011;40178;53.042;6.406;2023-05-16T06:14:54;8.65;;;1.67;;
54263;SDS011;40178;53.042;6.406;2023-05-16T06:17:20;5.32;;;1.10;;
54263;SDS011;40178;53.042;6.406;2023-05-16T06:19:46;7.10;;;1.30;;
54263;SDS011;40178;53.042;6.406;2023-05-16T06:22:11;5.75;;;2.25;;
54263;SDS011;40178;53.042;6.406;2023-05-16T06:24:38;6.50;;;1.27;;
54263;SDS011;40178;53.042;6.406;2023-05-16T06:27:03;6.93;;;0.80;;
54263;SDS011;40178;53.042;6.406;2023-05-16T06:29:29;4.55;;;0.75;;
54263;SDS011;40178;53.042;6.406;2023-05-16T06:31:55;3.70;;;1.13;;
54263;SDS011;40178;53.042;6.406;2023-05-16T06:34:20;7.60;;;0.85;;
54263;SDS011;40178;53.042;6.406;2023-05-16T06:36:52;6.47;;;0.80;;
54263;SDS011;40178;53.042;6.406;2023-05-16T06:39:18;6.65;;;0.80;;
54263;SDS011;40178;53.042;6.406;2023-05-16T06:41:44;6.75;;;1.27;;
54263;SDS011;40178;53.042;6.406;2023-05-16T06:44:10;4.85;;;0.85;;
54263;SDS011;40178;53.042;6.406;2023-05-16T06:46:36;3.67;;;0.90;;
54263;SDS011;40178;53.042;6.406;2023-05-16T06:49:02;8.00;;;1.27;;
54263;SDS011;40178;53.042;6.406;2023-05-16T06:51:28;4.65;;;1.00;;
54263;SDS011;40178;53.042;6.406;2023-05-16T06:53:55;8.02;;;1.20;;
54263;SDS011;40178;53.042;6.406;2023-05-16T06:56:21;4.95;;;1.77;;
54263;SDS011;40178;53.042;6.406;2023-05-16T06:58:49;8.55;;;1.52;;
54263;SDS011;40178;53.042;6.406;2023-05-16T07:01:15;6.05;;;1.70;;
54263;SDS011;40178;53.042;6.406;2023-05-16T07:03:41;7.97;;;1.10;;
54263;SDS011;40178;53.042;6.406;2023-05-16T07:06:06;7.47;;;0.98;;
54263;SDS011;40178;53.042;6.406;2023-05-16T07:08:33;6.53;;;1.10;;
54263;SDS011;40178;53.042;6.406;2023-05-16T07:11:00;7.13;;;1.73;;
54263;SDS011;40178;53.042;6.406;2023-05-16T07:13:25;4.72;;;1.38;;
54263;SDS011;40178;53.042;6.406;2023-05-16T07:15:54;4.90;;;0.90;;
54263;SDS011;40178;53.042;6.406;2023-05-16T07:18:20;7.85;;;1.23;;
54263;SDS011;40178;53.042;6.406;2023-05-16T07:20:45;4.40;;;0.85;;
54263;SDS011;40178;53.042;6.406;2023-05-16T07:23:11;9.68;;;1.23;;
54263;SDS011;40178;53.042;6.406;2023-05-16T07:25:36;8.60;;;1.20;;
54263;SDS011;40178;53.042;6.406;2023-05-16T07:28:02;6.68;;;1.00;;
54263;SDS011;40178;53.042;6.406;2023-05-16T07:30:28;6.13;;;1.05;;
54263;SDS011;40178;53.042;6.406;2023-05-16T07:32:54;9.27;;;1.08;;
54263;SDS011;40178;53.042;6.406;2023-05-16T07:35:20;6.63;;;1.00;;
54263;SDS011;40178;53.042;6.406;2023-05-16T07:37:45;6.55;;;1.40;;
54263;SDS011;40178;53.042;6.406;2023-05-16T07:40:11;8.10;;;1.17;;
54263;SDS011;40178;53.042;6.406;2023-05-16T07:42:37;5.95;;;0.90;;
54263;SDS011;40178;53.042;6.406;2023-05-16T07:45:04;6.45;;;0.98;;
54263;SDS011;40178;53.042;6.406;2023-05-16T07:47:31;6.55;;;1.02;;
54263;SDS011;40178;53.042;6.406;2023-05-16T07:49:56;7.78;;;1.10;;
54263;SDS011;40178;53.042;6.406;2023-05-16T07:52:22;7.55;;;1.25;;
54263;SDS011;40178;53.042;6.406;2023-05-16T07:54:48;4.28;;;0.90;;
54263;SDS011;40178;53.042;6.406;2023-05-16T07:57:14;3.15;;;0.70;;
54263;SDS011;40178;53.042;6.406;2023-05-16T07:59:40;10.45;;;1.48;;
54263;SDS011;40178;53.042;6.406;2023-05-16T08:02:06;6.63;;;1.02;;
54263;SDS011;40178;53.042;6.406;2023-05-16T08:04:32;5.68;;;1.17;;
54263;SDS011;40178;53.042;6.406;2023-05-16T08:06:57;5.93;;;0.90;;
54263;SDS011;40178;53.042;6.406;2023-05-16T08:09:23;6.15;;;1.27;;
54263;SDS011;40178;53.042;6.406;2023-05-16T08:11:48;6.78;;;1.10;;
54263;SDS011;40178;53.042;6.406;2023-05-16T08:14:14;5.32;;;0.98;;
54263;SDS011;40178;53.042;6.406;2023-05-16T08:16:40;4.75;;;0.93;;
54263;SDS011;40178;53.042;6.406;2023-05-16T08:19:05;5.75;;;1.02;;
54263;SDS011;40178;53.042;6.406;2023-05-16T08:21:31;8.70;;;0.93;;
54263;SDS011;40178;53.042;6.406;2023-05-16T08:23:57;3.45;;;0.68;;
54263;SDS011;40178;53.042;6.406;2023-05-16T08:26:22;4.32;;;0.70;;
54263;SDS011;40178;53.042;6.406;2023-05-16T08:28:49;6.57;;;0.90;;
54263;SDS011;40178;53.042;6.406;2023-05-16T08:31:15;4.03;;;1.00;;
54263;SDS011;40178;53.042;6.406;2023-05-16T08:33:41;4.72;;;0.80;;
54263;SDS011;40178;53.042;6.406;2023-05-16T08:36:08;7.60;;;1.00;;
54263;SDS011;40178;53.042;6.406;2023-05-16T08:38:34;6.68;;;0.90;;
54263;SDS011;40178;53.042;6.406;2023-05-16T08:40:59;7.82;;;1.00;;
54263;SDS011;40178;53.042;6.406;2023-05-16T08:43:25;5.88;;;0.65;;
54263;SDS011;40178;53.042;6.406;2023-05-16T08:45:54;6.85;;;1.08;;
54263;SDS011;40178;53.042;6.406;2023-05-16T08:48:21;6.00;;;0.82;;
54263;SDS011;40178;53.042;6.406;2023-05-16T08:50:48;5.05;;;0.90;;
54263;SDS011;40178;53.042;6.406;2023-05-16T08:53:14;7.05;;;0.90;;
54263;SDS011;40178;53.042;6.406;2023-05-16T08:55:45;6.22;;;1.45;;
54263;SDS011;40178;53.042;6.406;2023-05-16T08:58:12;4.43;;;1.02;;
54263;SDS011;40178;53.042;6.406;2023-05-16T09:00:39;6.68;;;1.00;;
54263;SDS011;40178;53.042;6.406;2023-05-16T09:03:04;7.78;;;1.42;;
54263;SDS011;40178;53.042;6.406;2023-05-16T09:05:30;5.30;;;0.90;;
54263;SDS011;40178;53.042;6.406;2023-05-16T09:07:57;6.07;;;1.13;;
54263;SDS011;40178;53.042;6.406;2023-05-16T09:10:22;7.68;;;1.20;;
54263;SDS011;40178;53.042;6.406;2023-05-16T09:12:48;5.38;;;0.95;;
54263;SDS011;40178;53.042;6.406;2023-05-16T09:15:13;9.15;;;1.02;;
54263;SDS011;40178;53.042;6.406;2023-05-16T09:17:42;7.47;;;1.15;;
54263;SDS011;40178;53.042;6.406;2023-05-16T09:20:13;6.63;;;1.10;;
54263;SDS011;40178;53.042;6.406;2023-05-16T09:22:48;5.30;;;0.77;;
54263;SDS011;40178;53.042;6.406;2023-05-16T09:25:16;7.50;;;1.15;;
54263;SDS011;40178;53.042;6.406;2023-05-16T09:27:42;4.03;;;0.75;;
54263;SDS011;40178;53.042;6.406;2023-05-16T09:30:08;4.45;;;1.70;;
54263;SDS011;40178;53.042;6.406;2023-05-16T09:32:34;4.63;;;1.02;;
54263;SDS011;40178;53.042;6.406;2023-05-16T09:34:59;5.65;;;1.23;;
54263;SDS011;40178;53.042;6.406;2023-05-16T09:37:25;6.10;;;0.80;;
54263;SDS011;40178;53.042;6.406;2023-05-16T09:39:51;6.30;;;1.00;;
54263;SDS011;40178;53.042;6.406;2023-05-16T09:42:19;5.15;;;0.77;;
54263;SDS011;40178;53.042;6.406;2023-05-16T09:44:47;4.13;;;0.77;;
54263;SDS011;40178;53.042;6.406;2023-05-16T09:47:15;8.10;;;1.02;;
54263;SDS011;40178;53.042;6.406;2023-05-16T09:49:45;5.60;;;1.50;;
54263;SDS011;40178;53.042;6.406;2023-05-16T09:52:13;6.40;;;1.15;;
54263;SDS011;40178;53.042;6.406;2023-05-16T09:54:38;6.30;;;1.23;;
54263;SDS011;40178;53.042;6.406;2023-05-16T09:57:05;3.47;;;1.00;;
54263;SDS011;40178;53.042;6.406;2023-05-16T09:59:34;5.88;;;1.77;;
54263;SDS011;40178;53.042;6.406;2023-05-16T10:02:04;6.80;;;0.90;;
54263;SDS011;40178;53.042;6.406;2023-05-16T10:04:34;6.05;;;1.00;;
54263;SDS011;40178;53.042;6.406;2023-05-16T10:07:01;6.07;;;0.73;;
54263;SDS011;40178;53.042;6.406;2023-05-16T10:09:28;3.97;;;0.82;;
54263;SDS011;40178;53.042;6.406;2023-05-16T10:12:02;4.50;;;1.00;;
54263;SDS011;40178;53.042;6.406;2023-05-16T10:14:33;2.78;;;0.70;;
54263;SDS011;40178;53.042;6.406;2023-05-16T10:17:08;4.05;;;0.70;;
54263;SDS011;40178;53.042;6.406;2023-05-16T10:19:38;5.93;;;0.82;;
54263;SDS011;40178;53.042;6.406;2023-05-16T10:22:05;3.95;;;0.95;;
54263;SDS011;40178;53.042;6.406;2023-05-16T10:24:47;8.98;;;1.02;;
54263;SDS011;40178;53.042;6.406;2023-05-16T10:27:19;3.95;;;0.98;;
54263;SDS011;40178;53.042;6.406;2023-05-16T10:29:45;6.18;;;1.00;;
54263;SDS011;40178;53.042;6.406;2023-05-16T10:32:11;8.70;;;1.00;;
54263;SDS011;40178;53.042;6.406;2023-05-16T10:34:38;3.75;;;0.95;;
54263;SDS011;40178;53.042;6.406;2023-05-16T10:37:04;4.40;;;1.05;;
54263;SDS011;40178;53.042;6.406;2023-05-16T10:39:31;7.35;;;0.75;;
54263;SDS011;40178;53.042;6.406;2023-05-16T10:41:57;3.20;;;0.60;;
54263;SDS011;40178;53.042;6.406;2023-05-16T10:44:24;3.45;;;0.50;;
54263;SDS011;40178;53.042;6.406;2023-05-16T10:46:50;6.03;;;1.17;;
54263;SDS011;40178;53.042;6.406;2023-05-16T10:49:19;6.53;;;0.88;;
54263;SDS011;40178;53.042;6.406;2023-05-16T10:51:48;3.45;;;0.60;;
54263;SDS011;40178;53.042;6.406;2023-05-16T10:54:32;5.22;;;0.77;;
54263;SDS011;40178;53.042;6.406;2023-05-16T10:57:14;4.63;;;0.77;;
54263;SDS011;40178;53.042;6.406;2023-05-16T11:02:21;5.95;;;0.73;;
54263;SDS011;40178;53.042;6.406;2023-05-16T11:04:58;6.22;;;1.38;;
54263;SDS011;40178;53.042;6.406;2023-05-16T11:07:34;2.90;;;0.80;;
54263;SDS011;40178;53.042;6.406;2023-05-16T11:15:16;6.53;;;1.17;;
54263;SDS011;40178;53.042;6.406;2023-05-16T11:17:47;4.70;;;1.20;;
54263;SDS011;40178;53.042;6.406;2023-05-16T11:20:26;5.03;;;0.98;;
54263;SDS011;40178;53.042;6.406;2023-05-16T11:25:40;7.53;;;1.30;;
54263;SDS011;40178;53.042;6.406;2023-05-16T11:28:07;4.93;;;1.15;;
54263;SDS011;40178;53.042;6.406;2023-05-16T11:30:34;5.38;;;0.85;;
54263;SDS011;40178;53.042;6.406;2023-05-16T11:33:00;3.38;;;0.80;;
54263;SDS011;40178;53.042;6.406;2023-05-16T11:35:26;4.95;;;1.10;;
54263;SDS011;40178;53.042;6.406;2023-05-16T11:37:52;3.88;;;0.70;;
54263;SDS011;40178;53.042;6.406;2023-05-16T11:40:18;6.90;;;1.17;;
54263;SDS011;40178;53.042;6.406;2023-05-16T11:42:44;6.85;;;1.02;;
54263;SDS011;40178;53.042;6.406;2023-05-16T11:45:14;6.72;;;1.02;;
54263;SDS011;40178;53.042;6.406;2023-05-16T11:47:44;8.98;;;1.65;;
54263;SDS011;40178;53.042;6.406;2023-05-16T11:50:15;5.10;;;1.27;;
54263;SDS011;40178;53.042;6.406;2023-05-16T11:52:43;5.38;;;1.10;;
54263;SDS011;40178;53.042;6.406;2023-05-16T11:55:10;5.70;;;1.42;;
54263;SDS011;40178;53.042;6.406;2023-05-16T11:57:39;4.20;;;1.10;;
54263;SDS011;40178;53.042;6.406;2023-05-16T12:00:16;5.65;;;1.25;;
54263;SDS011;40178;53.042;6.406;2023-05-16T12:02:43;5.90;;;1.20;;
54263;SDS011;40178;53.042;6.406;2023-05-16T12:05:11;4.72;;;1.20;;
54263;SDS011;40178;53.042;6.406;2023-05-16T12:07:37;5.97;;;1.13;;
54263;SDS011;40178;53.042;6.406;2023-05-16T12:10:07;6.10;;;1.70;;
54263;SDS011;40178;53.042;6.406;2023-05-16T12:12:33;6.85;;;1.15;;
54263;SDS011;40178;53.042;6.406;2023-05-16T12:15:01;7.00;;;1.35;;
54263;SDS011;40178;53.042;6.406;2023-05-16T12:17:28;5.72;;;1.05;;
54263;SDS011;40178;53.042;6.406;2023-05-16T12:19:53;4.60;;;1.42;;
54263;SDS011;40178;53.042;6.406;2023-05-16T12:22:19;5.88;;;1.63;;
54263;SDS011;40178;53.042;6.406;2023-05-16T12:24:45;7.85;;;1.98;;
54263;SDS011;40178;53.042;6.406;2023-05-16T12:27:11;8.30;;;1.67;;
54263;SDS011;40178;53.042;6.406;2023-05-16T12:29:37;4.82;;;1.38;;
54263;SDS011;40178;53.042;6.406;2023-05-16T12:32:03;5.70;;;1.50;;
54263;SDS011;40178;53.042;6.406;2023-05-16T12:34:31;4.95;;;1.48;;
54263;SDS011;40178;53.042;6.406;2023-05-16T12:36:57;6.57;;;1.45;;
54263;SDS011;40178;53.042;6.406;2023-05-16T12:39:23;4.53;;;1.23;;
54263;SDS011;40178;53.042;6.406;2023-05-16T12:41:49;5.07;;;1.55;;
54263;SDS011;40178;53.042;6.406;2023-05-16T12:44:16;5.60;;;1.80;;
54263;SDS011;40178;53.042;6.406;2023-05-16T12:46:43;7.70;;;1.65;;
54263;SDS011;40178;53.042;6.406;2023-05-16T12:49:11;5.47;;;1.60;;
54263;SDS011;40178;53.042;6.406;2023-05-16T12:51:37;6.15;;;1.63;;
54263;SDS011;40178;53.042;6.406;2023-05-16T12:54:10;6.50;;;1.50;;
54263;SDS011;40178;53.042;6.406;2023-05-16T12:56:39;6.65;;;1.95;;
54263;SDS011;40178;53.042;6.406;2023-05-16T12:59:06;6.30;;;1.83;;
54263;SDS011;40178;53.042;6.406;2023-05-16T13:01:32;9.18;;;1.88;;
54263;SDS011;40178;53.042;6.406;2023-05-16T13:03:59;5.50;;;1.55;;
54263;SDS011;40178;53.042;6.406;2023-05-16T13:06:25;5.30;;;1.55;;
54263;SDS011;40178;53.042;6.406;2023-05-16T13:08:50;6.85;;;1.83;;
54263;SDS011;40178;53.042;6.406;2023-05-16T13:11:16;5.78;;;1.73;;
54263;SDS011;40178;53.042;6.406;2023-05-16T13:13:43;7.07;;;1.90;;
54263;SDS011;40178;53.042;6.406;2023-05-16T13:16:09;8.52;;;1.83;;
54263;SDS011;40178;53.042;6.406;2023-05-16T13:18:34;5.45;;;1.55;;
54263;SDS011;40178;53.042;6.406;2023-05-16T13:21:01;6.43;;;2.42;;
54263;SDS011;40178;53.042;6.406;2023-05-16T13:23:28;6.90;;;2.00;;
54263;SDS011;40178;53.042;6.406;2023-05-16T13:25:54;5.45;;;1.70;;
54263;SDS011;40178;53.042;6.406;2023-05-16T13:28:20;5.63;;;1.85;;
54263;SDS011;40178;53.042;6.406;2023-05-16T13:30:45;7.10;;;2.00;;
54263;SDS011;40178;53.042;6.406;2023-05-16T13:33:11;4.25;;;1.50;;
54263;SDS011;40178;53.042;6.406;2023-05-16T13:35:37;5.75;;;1.77;;
54263;SDS011;40178;53.042;6.406;2023-05-16T13:38:03;7.18;;;1.70;;
54263;SDS011;40178;53.042;6.406;2023-05-16T13:40:28;7.13;;;1.75;;
54263;SDS011;40178;53.042;6.406;2023-05-16T13:42:55;5.78;;;1.77;;
54263;SDS011;40178;53.042;6.406;2023-05-16T13:45:21;5.13;;;1.67;;
54263;SDS011;40178;53.042;6.406;2023-05-16T13:47:47;6.45;;;2.17;;
54263;SDS011;40178;53.042;6.406;2023-05-16T13:50:12;4.43;;;1.77;;
54263;SDS011;40178;53.042;6.406;2023-05-16T13:52:38;4.28;;;1.63;;
54263;SDS011;40178;53.042;6.406;2023-05-16T13:55:04;6.88;;;2.20;;
54263;SDS011;40178;53.042;6.406;2023-05-16T13:57:31;6.47;;;2.00;;
54263;SDS011;40178;53.042;6.406;2023-05-16T13:59:57;6.20;;;1.90;;
54263;SDS011;40178;53.042;6.406;2023-05-16T14:02:23;5.65;;;1.67;;
54263;SDS011;40178;53.042;6.406;2023-05-16T14:04:51;5.90;;;1.60;;
54263;SDS011;40178;53.042;6.406;2023-05-16T14:07:17;5.35;;;1.85;;
54263;SDS011;40178;53.042;6.406;2023-05-16T14:09:43;6.10;;;2.10;;
54263;SDS011;40178;53.042;6.406;2023-05-16T14:12:09;6.53;;;1.63;;
54263;SDS011;40178;53.042;6.406;2023-05-16T14:14:35;5.30;;;1.63;;
54263;SDS011;40178;53.042;6.406;2023-05-16T14:17:01;4.70;;;1.45;;
54263;SDS011;40178;53.042;6.406;2023-05-16T14:19:31;6.18;;;1.50;;
54263;SDS011;40178;53.042;6.406;2023-05-16T14:21:56;4.78;;;1.23;;
54263;SDS011;40178;53.042;6.406;2023-05-16T14:24:22;4.18;;;1.30;;
54263;SDS011;40178;53.042;6.406;2023-05-16T14:26:48;5.38;;;1.45;;
54263;SDS011;40178;53.042;6.406;2023-05-16T14:29:13;5.97;;;1.40;;
54263;SDS011;40178;53.042;6.406;2023-05-16T14:31:39;6.68;;;1.90;;
54263;SDS011;40178;53.042;6.406;2023-05-16T14:34:05;4.80;;;1.50;;
54263;SDS011;40178;53.042;6.406;2023-05-16T14:36:30;3.78;;;1.35;;
54263;SDS011;40178;53.042;6.406;2023-05-16T14:38:57;4.50;;;1.20;;
54263;SDS011;40178;53.042;6.406;2023-05-16T14:41:22;6.35;;;1.55;;
54263;SDS011;40178;53.042;6.406;2023-05-16T14:43:48;4.80;;;1.73;;
54263;SDS011;40178;53.042;6.406;2023-05-16T14:46:14;6.97;;;1.65;;
54263;SDS011;40178;53.042;6.406;2023-05-16T14:48:39;7.38;;;1.95;;
54263;SDS011;40178;53.042;6.406;2023-05-16T14:51:05;8.00;;;1.40;;
54263;SDS011;40178;53.042;6.406;2023-05-16T14:53:31;7.63;;;1.88;;
54263;SDS011;40178;53.042;6.406;2023-05-16T14:55:57;9.10;;;1.60;;
54263;SDS011;40178;53.042;6.406;2023-05-16T14:58:23;5.10;;;1.30;;
54263;SDS011;40178;53.042;6.406;2023-05-16T15:00:49;6.10;;;1.40;;
54263;SDS011;40178;53.042;6.406;2023-05-16T15:03:15;7.45;;;1.50;;
54263;SDS011;40178;53.042;6.406;2023-05-16T15:05:41;5.50;;;1.52;;